createdAt,value
2023-10-15T00:00:07.571Z,57.32
2023-10-15T00:02:34.584Z,57.89
2023-10-15T00:05:01.480Z,57.63
2023-10-15T00:07:28.468Z,58.03
2023-10-15T00:09:55.390Z,58.00
2023-10-15T00:12:22.339Z,58.20
2023-10-15T00:14:49.365Z,58.20
2023-10-15T00:17:16.320Z,58.64
2023-10-15T00:19:43.316Z,58.26
2023-10-15T00:22:10.112Z,58.22
2023-10-15T00:24:36.956Z,57.97
2023-10-15T00:27:03.883Z,57.97
2023-10-15T00:29:30.679Z,58.07
2023-10-15T00:31:57.477Z,57.96
2023-10-15T00:34:24.508Z,58.01
2023-10-15T00:36:51.760Z,57.84
2023-10-15T00:39:18.563Z,58.04
2023-10-15T00:41:45.449Z,58.17
2023-10-15T00:44:12.426Z,57.71
2023-10-15T00:46:39.309Z,57.87
2023-10-15T00:49:06.353Z,57.87
2023-10-15T00:51:34.646Z,57.61
2023-10-15T00:54:01.449Z,57.82
2023-10-15T00:56:28.469Z,57.93
2023-10-15T00:58:55.400Z,57.53
2023-10-15T01:01:22.484Z,56.95
2023-10-15T01:03:49.363Z,57.17
2023-10-15T01:06:16.247Z,57.02
2023-10-15T01:08:43.072Z,57.74
2023-10-15T01:11:09.885Z,57.84
2023-10-15T01:13:37.787Z,57.65
2023-10-15T01:16:04.631Z,57.61
2023-10-15T01:18:31.504Z,57.00
2023-10-15T01:20:58.293Z,57.23
2023-10-15T01:23:25.153Z,56.85
2023-10-15T01:25:52.000Z,56.86
2023-10-15T01:28:19.000Z,56.91
2023-10-15T01:30:45.902Z,57.15
2023-10-15T01:33:12.693Z,56.79
2023-10-15T01:35:39.567Z,56.96
2023-10-15T01:38:06.352Z,56.37
2023-10-15T01:40:33.236Z,56.18
2023-10-15T01:43:00.070Z,56.20
2023-10-15T01:45:26.861Z,55.98
2023-10-15T01:47:53.730Z,55.10
2023-10-15T01:50:20.534Z,55.38
2023-10-15T01:52:47.481Z,55.63
2023-10-15T01:55:14.582Z,55.68
2023-10-15T01:57:41.415Z,55.71
2023-10-15T02:00:08.200Z,55.25
2023-10-15T02:02:35.188Z,55.51
2023-10-15T02:05:02.119Z,55.51
2023-10-15T02:07:29.251Z,55.59
2023-10-15T02:09:56.118Z,55.53
2023-10-15T02:12:22.958Z,55.83
2023-10-15T02:14:49.760Z,55.91
2023-10-15T02:17:16.738Z,55.65
2023-10-15T02:19:43.668Z,55.81
2023-10-15T02:22:10.429Z,55.28
2023-10-15T02:24:37.232Z,55.69
2023-10-15T02:27:04.227Z,55.78
2023-10-15T02:29:31.051Z,55.61
2023-10-15T02:31:57.985Z,55.12
2023-10-15T02:34:25.085Z,55.76
2023-10-15T02:36:52.149Z,55.55
2023-10-15T02:39:18.937Z,55.48
2023-10-15T02:41:45.814Z,55.12
2023-10-15T02:44:12.761Z,55.07
2023-10-15T02:46:39.655Z,55.10
2023-10-15T02:49:06.680Z,55.38
2023-10-15T02:51:33.499Z,54.91
2023-10-15T02:54:00.300Z,55.40
2023-10-15T02:56:27.377Z,54.84
2023-10-15T02:58:54.284Z,54.83
2023-10-15T03:01:21.266Z,54.88
2023-10-15T03:03:48.546Z,55.18
2023-10-15T03:06:15.479Z,54.97
2023-10-15T03:08:49.742Z,55.26
2023-10-15T03:11:17.092Z,55.41
2023-10-15T03:13:44.024Z,55.46
2023-10-15T03:16:10.892Z,55.47
2023-10-15T03:18:37.909Z,55.20
2023-10-15T03:21:04.866Z,54.74
2023-10-15T03:23:31.660Z,54.44
2023-10-15T03:25:58.732Z,54.40
2023-10-15T03:28:25.669Z,53.94
2023-10-15T03:30:52.574Z,53.80
2023-10-15T03:33:19.580Z,53.57
2023-10-15T03:35:46.490Z,53.63
2023-10-15T03:38:13.465Z,53.45
2023-10-15T03:40:40.287Z,52.96
2023-10-15T03:43:07.347Z,53.19
2023-10-15T03:45:34.320Z,53.01
2023-10-15T03:48:01.167Z,52.83
2023-10-15T03:50:28.231Z,52.91
2023-10-15T03:52:55.182Z,52.53
2023-10-15T03:55:21.999Z,52.51
2023-10-15T03:57:48.898Z,53.01
2023-10-15T04:00:15.792Z,52.49
2023-10-15T04:03:02.625Z,52.73
2023-10-15T04:05:29.510Z,52.43
2023-10-15T04:07:56.442Z,52.78
2023-10-15T04:10:23.633Z,52.86
2023-10-15T04:12:50.542Z,52.76
2023-10-15T04:15:17.340Z,52.42
2023-10-15T04:17:44.329Z,52.41
2023-10-15T04:20:11.250Z,52.56
2023-10-15T04:22:38.153Z,52.17
2023-10-15T04:25:05.168Z,51.96
2023-10-15T04:27:32.069Z,52.11
2023-10-15T04:29:58.866Z,52.14
2023-10-15T04:32:25.858Z,51.96
2023-10-15T04:34:52.871Z,52.03
2023-10-15T04:37:19.731Z,52.14
2023-10-15T04:39:52.990Z,52.87
2023-10-15T04:42:25.441Z,52.34
2023-10-15T04:44:52.440Z,52.38
2023-10-15T04:47:19.308Z,52.54
2023-10-15T04:49:46.433Z,52.50
2023-10-15T04:52:15.603Z,52.00
2023-10-15T04:54:42.502Z,52.39
2023-10-15T04:57:09.364Z,52.52
2023-10-15T04:59:36.458Z,52.30
2023-10-15T05:02:03.446Z,52.38
2023-10-15T05:04:30.407Z,51.85
2023-10-15T05:06:57.218Z,52.21
2023-10-15T05:09:24.046Z,52.23
2023-10-15T05:11:51.064Z,52.17
2023-10-15T05:14:17.887Z,51.78
2023-10-15T05:16:47.173Z,51.58
2023-10-15T05:19:13.958Z,51.63
2023-10-15T05:21:40.824Z,51.77
2023-10-15T05:24:07.623Z,51.85
2023-10-15T05:26:34.501Z,51.93
2023-10-15T05:29:01.380Z,51.61
2023-10-15T05:31:28.229Z,51.75
2023-10-15T05:33:55.198Z,51.84
2023-10-15T05:36:21.981Z,51.47
2023-10-15T05:38:48.798Z,51.64
2023-10-15T05:41:15.687Z,51.47
2023-10-15T05:43:42.631Z,51.52
2023-10-15T05:46:09.425Z,51.46
2023-10-15T05:48:36.531Z,51.24
2023-10-15T05:51:03.422Z,51.75
2023-10-15T05:53:32.240Z,51.45
2023-10-15T05:56:00.398Z,51.59
2023-10-15T05:58:27.341Z,51.22
2023-10-15T06:00:54.281Z,51.88
2023-10-15T06:03:21.314Z,51.90
2023-10-15T06:05:48.216Z,52.22
2023-10-15T06:08:15.001Z,51.77
2023-10-15T06:10:41.944Z,52.44
2023-10-15T06:13:08.751Z,52.43
2023-10-15T06:15:35.855Z,52.15
2023-10-15T06:18:03.064Z,51.88
2023-10-15T06:20:30.205Z,52.21
2023-10-15T06:22:57.337Z,51.93
2023-10-15T06:25:24.286Z,50.97
2023-10-15T06:27:51.152Z,51.08
2023-10-15T06:30:22.144Z,51.62
2023-10-15T06:32:54.421Z,51.31
2023-10-15T06:35:21.682Z,49.61
2023-10-15T06:37:51.572Z,48.78
2023-10-15T06:40:22.913Z,48.74
2023-10-15T06:42:51.097Z,48.59
2023-10-15T06:45:17.997Z,48.13
2023-10-15T06:47:45.115Z,47.21
2023-10-15T06:50:11.983Z,45.79
2023-10-15T06:52:38.804Z,46.06
2023-10-15T06:55:05.665Z,47.24
2023-10-15T06:57:32.687Z,46.41
2023-10-15T06:59:59.479Z,46.06
2023-10-15T07:02:26.420Z,46.44
2023-10-15T07:04:53.567Z,46.16
2023-10-15T07:07:20.388Z,46.18
2023-10-15T07:09:47.244Z,46.03
2023-10-15T07:12:14.066Z,45.69
2023-10-15T07:14:40.880Z,46.11
2023-10-15T07:17:08.060Z,45.47
2023-10-15T07:19:37.576Z,45.26
2023-10-15T07:22:04.463Z,45.62
2023-10-15T07:24:31.685Z,45.36
2023-10-15T07:26:58.496Z,45.64
2023-10-15T07:29:25.447Z,45.25
2023-10-15T07:31:52.370Z,44.87
2023-10-15T07:34:19.232Z,45.33
2023-10-15T07:36:46.104Z,45.03
2023-10-15T07:39:12.948Z,44.92
2023-10-15T07:41:39.763Z,44.66
2023-10-15T07:44:06.633Z,44.93
2023-10-15T07:46:33.814Z,44.89
2023-10-15T07:49:00.899Z,44.45
2023-10-15T07:51:29.958Z,44.33
2023-10-15T07:53:58.246Z,44.39
2023-10-15T07:56:25.284Z,44.78
2023-10-15T07:58:52.108Z,44.54
2023-10-15T08:01:18.912Z,44.36
2023-10-15T08:03:45.963Z,44.41
2023-10-15T08:06:13.196Z,44.11
2023-10-15T08:08:40.085Z,44.38
2023-10-15T08:11:07.111Z,44.58
2023-10-15T08:13:34.036Z,44.41
2023-10-15T08:16:00.883Z,45.12
2023-10-15T08:18:27.882Z,46.81
2023-10-15T08:20:54.953Z,48.13
2023-10-15T08:23:21.766Z,47.36
2023-10-15T08:25:48.705Z,49.03
2023-10-15T08:28:15.650Z,49.28
2023-10-15T08:30:42.576Z,48.55
2023-10-15T08:33:09.599Z,48.51
2023-10-15T08:35:39.002Z,48.47
2023-10-15T08:38:05.992Z,47.69
2023-10-15T08:40:33.242Z,47.46
2023-10-15T08:43:00.078Z,47.63
2023-10-15T08:45:27.051Z,47.17
2023-10-15T08:47:54.056Z,47.10
2023-10-15T08:50:20.969Z,47.60
2023-10-15T08:52:47.991Z,47.04
2023-10-15T08:55:14.870Z,46.93
2023-10-15T08:57:41.762Z,47.04
2023-10-15T09:00:17.386Z,47.39
2023-10-15T09:02:51.542Z,47.07
2023-10-15T09:05:18.450Z,47.30
2023-10-15T09:07:45.334Z,46.88
2023-10-15T09:10:12.398Z,46.85
2023-10-15T09:12:39.229Z,47.29
2023-10-15T09:15:06.129Z,47.10
2023-10-15T09:17:33.016Z,47.18
2023-10-15T09:19:59.896Z,46.73
2023-10-15T09:22:26.770Z,46.72
2023-10-15T09:24:53.741Z,46.74
2023-10-15T09:27:20.533Z,46.85
2023-10-15T09:29:47.424Z,46.66
2023-10-15T09:32:14.275Z,46.84
2023-10-15T09:34:41.184Z,46.86
2023-10-15T09:37:08.340Z,46.88
2023-10-15T09:39:35.267Z,46.73
2023-10-15T09:42:02.070Z,46.34
2023-10-15T09:44:29.702Z,46.53
2023-10-15T09:46:56.727Z,46.73
2023-10-15T09:49:23.650Z,46.66
2023-10-15T09:51:50.452Z,46.33
2023-10-15T09:54:17.308Z,46.74
2023-10-15T09:56:44.306Z,46.14
2023-10-15T09:59:11.163Z,46.63
2023-10-15T10:01:38.081Z,46.21
2023-10-15T10:04:05.086Z,46.04
2023-10-15T10:06:32.712Z,45.95
2023-10-15T10:08:59.841Z,46.02
2023-10-15T10:11:26.862Z,45.93
2023-10-15T10:13:53.841Z,46.15
2023-10-15T10:16:20.943Z,46.04
2023-10-15T10:18:47.812Z,46.03
2023-10-15T10:21:14.658Z,46.01
2023-10-15T10:23:49.529Z,46.16
2023-10-15T10:26:16.661Z,45.67
2023-10-15T10:28:43.720Z,46.07
2023-10-15T10:31:10.558Z,45.59
2023-10-15T10:33:37.613Z,45.71
2023-10-15T10:36:04.868Z,45.65
2023-10-15T10:38:31.851Z,45.87
2023-10-15T10:40:59.763Z,45.81
2023-10-15T10:43:27.669Z,45.81
2023-10-15T10:45:54.770Z,45.67
2023-10-15T10:48:21.717Z,45.41
2023-10-15T10:50:48.547Z,45.85
2023-10-15T10:53:15.565Z,45.50
2023-10-15T10:55:42.538Z,45.25
2023-10-15T10:58:09.532Z,45.26
2023-10-15T11:00:36.510Z,45.05
2023-10-15T11:03:03.504Z,45.06
2023-10-15T11:05:30.439Z,45.52
2023-10-15T11:07:57.353Z,45.15
2023-10-15T11:10:24.333Z,45.02
2023-10-15T11:12:51.144Z,45.32
2023-10-15T11:15:17.952Z,44.71
2023-10-15T11:17:44.986Z,45.00
2023-10-15T11:20:11.983Z,45.00
2023-10-15T11:22:38.914Z,45.17
2023-10-15T11:25:05.894Z,44.85
2023-10-15T11:27:32.749Z,44.87
2023-10-15T11:29:59.561Z,45.08
2023-10-15T11:32:26.698Z,44.77
2023-10-15T11:34:53.631Z,44.79
2023-10-15T11:37:20.449Z,44.61
2023-10-15T11:39:47.269Z,44.50
2023-10-15T11:42:14.148Z,44.73
2023-10-15T11:44:40.966Z,44.79
2023-10-15T11:47:07.898Z,44.38
2023-10-15T11:49:34.804Z,44.87
2023-10-15T11:52:04.681Z,44.70
2023-10-15T11:54:31.491Z,44.45
2023-10-15T11:56:58.272Z,44.26
2023-10-15T11:59:25.285Z,44.22
2023-10-15T12:01:52.348Z,44.17
2023-10-15T12:04:19.189Z,44.49
2023-10-15T12:06:46.261Z,44.26
2023-10-15T12:09:13.188Z,44.34
2023-10-15T12:11:40.053Z,44.22
2023-10-15T12:14:06.964Z,43.99
2023-10-15T12:16:33.875Z,44.00
2023-10-15T12:19:00.727Z,44.27
2023-10-15T12:21:27.827Z,44.08
2023-10-15T12:23:54.749Z,44.15
2023-10-15T12:26:24.537Z,44.12
2023-10-15T12:28:51.431Z,44.06
2023-10-15T12:31:18.328Z,43.99
2023-10-15T12:33:45.339Z,44.38
2023-10-15T12:36:12.220Z,44.16
2023-10-15T12:38:39.131Z,44.36
2023-10-15T12:41:06.120Z,44.16
2023-10-15T12:43:32.983Z,43.97
2023-10-15T12:45:59.777Z,43.82
2023-10-15T12:48:26.692Z,44.16
2023-10-15T12:50:53.499Z,44.20
2023-10-15T12:53:20.379Z,43.97
2023-10-15T12:55:47.253Z,44.32
2023-10-15T12:58:14.245Z,44.06
2023-10-15T13:00:41.144Z,44.15
2023-10-15T13:03:08.204Z,44.30
2023-10-15T13:05:35.203Z,43.93
2023-10-15T13:08:02.025Z,44.30
2023-10-15T13:10:28.859Z,44.31
2023-10-15T13:12:55.820Z,44.13
2023-10-15T13:15:40.991Z,44.21
2023-10-15T13:18:07.954Z,44.02
2023-10-15T13:20:34.783Z,44.21
2023-10-15T13:23:01.623Z,44.24
2023-10-15T13:25:28.536Z,43.96
2023-10-15T13:27:55.530Z,43.90
2023-10-15T13:30:22.322Z,44.11
2023-10-15T13:32:49.685Z,43.48
2023-10-15T13:35:16.903Z,43.91
2023-10-15T13:37:43.938Z,44.00
2023-10-15T13:40:13.304Z,43.92
2023-10-15T13:42:40.182Z,43.82
2023-10-15T13:45:06.973Z,43.84
2023-10-15T13:47:34.084Z,43.72
2023-10-15T13:50:00.985Z,43.55
2023-10-15T13:52:30.840Z,43.82
2023-10-15T13:54:57.835Z,43.60
2023-10-15T13:57:24.734Z,43.60
2023-10-15T13:59:51.536Z,43.94
2023-10-15T14:02:18.476Z,43.68
2023-10-15T14:04:45.643Z,44.02
2023-10-15T14:07:12.580Z,43.95
2023-10-15T14:09:39.366Z,43.91
2023-10-15T14:12:06.357Z,43.69
2023-10-15T14:14:33.198Z,43.88
2023-10-15T14:17:00.142Z,43.75
2023-10-15T14:19:27.227Z,43.75
2023-10-15T14:21:54.070Z,44.04
2023-10-15T14:24:20.869Z,44.03
2023-10-15T14:26:47.642Z,43.93
2023-10-15T14:29:14.562Z,43.88
2023-10-15T14:31:41.437Z,44.05
2023-10-15T14:34:08.517Z,43.84
2023-10-15T14:36:35.522Z,43.63
2023-10-15T14:39:02.341Z,43.63
2023-10-15T14:41:29.217Z,43.93
2023-10-15T14:43:56.062Z,44.11
2023-10-15T14:46:22.943Z,43.60
2023-10-15T14:48:49.804Z,43.94
2023-10-15T14:51:16.701Z,44.07
2023-10-15T14:53:43.775Z,43.70
2023-10-15T14:56:10.690Z,43.87
2023-10-15T14:58:37.496Z,44.26
2023-10-15T15:01:04.369Z,44.79
2023-10-15T15:03:31.236Z,45.03
2023-10-15T15:05:58.361Z,45.10
2023-10-15T15:08:25.208Z,44.40
2023-10-15T15:10:52.099Z,43.24
2023-10-15T15:13:18.950Z,43.01
2023-10-15T15:15:45.936Z,43.75
2023-10-15T15:18:12.784Z,43.16
2023-10-15T15:20:39.672Z,43.78
2023-10-15T15:23:06.561Z,43.42
2023-10-15T15:25:33.458Z,44.25
2023-10-15T15:28:00.395Z,44.13
2023-10-15T15:30:27.189Z,43.70
2023-10-15T15:32:54.053Z,43.96
2023-10-15T15:35:21.094Z,43.46
2023-10-15T15:37:48.072Z,43.72
2023-10-15T15:40:14.914Z,43.63
2023-10-15T15:42:41.841Z,43.51
2023-10-15T15:45:09.084Z,43.38
2023-10-15T15:47:36.019Z,43.14
2023-10-15T15:50:03.048Z,43.15
2023-10-15T15:52:29.980Z,43.29
2023-10-15T15:54:56.946Z,43.70
2023-10-15T15:57:23.910Z,43.50
2023-10-15T15:59:50.733Z,43.04
2023-10-15T16:02:17.665Z,43.70
2023-10-15T16:04:44.662Z,43.67
2023-10-15T16:07:11.601Z,43.37
2023-10-15T16:09:38.431Z,43.57
2023-10-15T16:12:05.231Z,43.33
2023-10-15T16:14:32.254Z,43.25
2023-10-15T16:16:59.164Z,43.77
2023-10-15T16:19:25.953Z,43.67
2023-10-15T16:21:52.830Z,43.59
2023-10-15T16:24:19.629Z,43.71
2023-10-15T16:26:46.433Z,43.99
2023-10-15T16:29:13.535Z,43.77
2023-10-15T16:31:41.200Z,43.43
2023-10-15T16:34:08.039Z,43.43
2023-10-15T16:36:35.126Z,43.17
2023-10-15T16:39:02.091Z,43.49
2023-10-15T16:41:29.124Z,43.63
2023-10-15T16:43:56.060Z,43.36
2023-10-15T16:46:23.100Z,43.23
2023-10-15T16:48:50.068Z,43.71
2023-10-15T16:51:24.876Z,43.76
2023-10-15T16:53:53.385Z,43.62
2023-10-15T16:56:20.357Z,43.93
2023-10-15T16:58:47.351Z,43.93
2023-10-15T17:01:17.629Z,43.58
2023-10-15T17:03:44.583Z,43.62
2023-10-15T17:06:11.449Z,44.44
2023-10-15T17:08:38.458Z,43.55
2023-10-15T17:11:05.488Z,43.93
2023-10-15T17:13:32.287Z,43.70
2023-10-15T17:15:59.294Z,43.53
2023-10-15T17:18:26.381Z,44.52
2023-10-15T17:20:53.921Z,44.75
2023-10-15T17:23:20.793Z,44.44
2023-10-15T17:25:47.619Z,43.75
2023-10-15T17:28:14.454Z,43.97
2023-10-15T17:30:41.355Z,43.92
2023-10-15T17:33:08.375Z,43.51
2023-10-15T17:35:35.299Z,44.14
2023-10-15T17:38:02.182Z,44.49
2023-10-15T17:40:32.381Z,44.38
2023-10-15T17:43:00.407Z,44.91
2023-10-15T17:45:27.399Z,44.42
2023-10-15T17:47:54.657Z,44.07
2023-10-15T17:50:21.617Z,44.13
2023-10-15T17:52:48.408Z,43.68
2023-10-15T17:55:17.776Z,44.30
2023-10-15T17:57:44.660Z,44.50
2023-10-15T18:00:11.559Z,44.56
2023-10-15T18:02:38.644Z,44.53
2023-10-15T18:05:05.493Z,44.45
2023-10-15T18:07:32.333Z,44.86
2023-10-15T18:09:59.228Z,44.17
2023-10-15T18:12:26.204Z,44.78
2023-10-15T18:14:53.424Z,44.92
2023-10-15T18:17:20.412Z,44.33
2023-10-15T18:19:47.348Z,44.80
2023-10-15T18:22:14.261Z,44.93
2023-10-15T18:24:41.176Z,44.22
2023-10-15T18:27:08.054Z,44.35
2023-10-15T18:29:35.137Z,43.71
2023-10-15T18:32:01.965Z,43.77
2023-10-15T18:34:28.884Z,43.56
2023-10-15T18:36:55.892Z,43.81
2023-10-15T18:39:22.934Z,43.49
2023-10-15T18:41:49.827Z,43.43
2023-10-15T18:44:16.747Z,43.72
2023-10-15T18:46:43.775Z,44.89
2023-10-15T18:49:10.616Z,45.93
2023-10-15T18:51:38.463Z,45.73
2023-10-15T18:54:05.561Z,45.39
2023-10-15T18:56:32.647Z,45.36
2023-10-15T18:58:59.522Z,45.08
2023-10-15T19:01:26.447Z,45.30
2023-10-15T19:03:53.709Z,45.49
2023-10-15T19:06:20.859Z,45.59
2023-10-15T19:08:47.747Z,45.46
2023-10-15T19:11:17.280Z,45.23
2023-10-15T19:13:44.331Z,44.88
2023-10-15T19:16:11.183Z,45.21
2023-10-15T19:18:38.249Z,44.94
2023-10-15T19:21:05.402Z,44.62
2023-10-15T19:23:32.423Z,44.99
2023-10-15T19:25:59.385Z,44.38
2023-10-15T19:28:26.346Z,44.51
2023-10-15T19:30:53.320Z,44.39
2023-10-15T19:33:20.196Z,44.62
2023-10-15T19:35:47.183Z,44.40
2023-10-15T19:38:14.036Z,44.87
2023-10-15T19:40:40.904Z,44.74
2023-10-15T19:43:07.860Z,44.91
2023-10-15T19:45:34.962Z,45.52
2023-10-15T19:48:01.874Z,45.04
2023-10-15T19:50:28.719Z,44.59
2023-10-15T19:52:55.804Z,45.10
2023-10-15T19:55:22.645Z,44.93
2023-10-15T19:57:49.554Z,44.72
2023-10-15T20:00:16.855Z,44.74
2023-10-15T20:02:43.999Z,44.17
2023-10-15T20:05:10.973Z,44.49
2023-10-15T20:07:38.055Z,44.48
2023-10-15T20:10:04.990Z,44.25
2023-10-15T20:12:31.964Z,44.49
2023-10-15T20:15:01.969Z,44.51
2023-10-15T20:17:28.863Z,44.59
2023-10-15T20:19:55.736Z,44.40
2023-10-15T20:22:22.563Z,44.30
2023-10-15T20:24:49.426Z,44.70
2023-10-15T20:27:16.359Z,44.66
2023-10-15T20:29:43.444Z,44.13
2023-10-15T20:32:10.384Z,44.73
2023-10-15T20:34:37.330Z,44.38
2023-10-15T20:37:04.136Z,44.51
2023-10-15T20:39:31.312Z,44.83
2023-10-15T20:41:58.267Z,44.87
2023-10-15T20:44:25.388Z,44.92
2023-10-15T20:46:54.871Z,45.04
2023-10-15T20:49:21.750Z,45.16
2023-10-15T20:51:51.124Z,45.09
2023-10-15T20:54:22.004Z,45.30
2023-10-15T20:56:49.389Z,45.20
2023-10-15T20:59:16.328Z,45.60
2023-10-15T21:01:43.362Z,45.90
2023-10-15T21:04:10.178Z,45.84
2023-10-15T21:06:37.240Z,45.97
2023-10-15T21:09:04.208Z,46.24
2023-10-15T21:11:31.058Z,46.01
2023-10-15T21:13:58.123Z,46.51
2023-10-15T21:16:25.171Z,46.41
2023-10-15T21:18:52.116Z,46.42
2023-10-15T21:21:19.040Z,46.66
2023-10-15T21:23:45.993Z,46.35
2023-10-15T21:26:12.791Z,46.24
2023-10-15T21:28:39.617Z,46.58
2023-10-15T21:31:06.773Z,46.86
2023-10-15T21:33:33.898Z,46.66
2023-10-15T21:36:00.774Z,46.46
2023-10-15T21:38:27.767Z,47.04
2023-10-15T21:40:54.755Z,47.49
2023-10-15T21:43:21.550Z,47.53
2023-10-15T21:45:48.370Z,47.61
2023-10-15T21:48:15.352Z,47.24
2023-10-15T21:50:42.199Z,47.33
2023-10-15T21:53:09.049Z,47.85
2023-10-15T21:55:35.846Z,47.88
2023-10-15T21:58:02.648Z,48.16
2023-10-15T22:00:29.721Z,47.86
2023-10-15T22:02:56.854Z,48.29
2023-10-15T22:05:23.695Z,47.63
2023-10-15T22:07:50.471Z,48.06
2023-10-15T22:10:17.254Z,48.02
2023-10-15T22:12:44.100Z,48.29
2023-10-15T22:15:11.084Z,48.13
2023-10-15T22:17:38.009Z,48.10
2023-10-15T22:20:04.998Z,48.21
2023-10-15T22:22:31.844Z,48.27
2023-10-15T22:24:58.690Z,48.30
2023-10-15T22:27:25.685Z,48.31
2023-10-15T22:29:52.644Z,48.76
2023-10-15T22:32:19.548Z,48.80
2023-10-15T22:34:46.359Z,49.12
2023-10-15T22:37:13.143Z,49.09
2023-10-15T22:39:40.041Z,49.24
2023-10-15T22:42:07.154Z,49.46
2023-10-15T22:44:34.150Z,49.34
2023-10-15T22:47:01.114Z,49.30
2023-10-15T22:49:27.937Z,49.85
2023-10-15T22:51:54.804Z,49.32
2023-10-15T22:54:21.647Z,49.47
2023-10-15T22:56:48.487Z,49.70
2023-10-15T22:59:15.335Z,49.42
2023-10-15T23:01:42.170Z,49.74
2023-10-15T23:04:09.197Z,49.91
2023-10-15T23:06:36.166Z,50.07
2023-10-15T23:09:03.069Z,49.86
2023-10-15T23:11:30.055Z,49.76
2023-10-15T23:13:56.970Z,50.24
2023-10-15T23:16:23.849Z,50.03
2023-10-15T23:18:50.929Z,49.84
2023-10-15T23:21:17.889Z,49.68
2023-10-15T23:23:44.693Z,50.04
2023-10-15T23:26:11.584Z,50.47
2023-10-15T23:28:38.543Z,50.33
2023-10-15T23:31:05.517Z,50.46
2023-10-15T23:33:32.358Z,50.51
2023-10-15T23:35:59.581Z,49.78
2023-10-15T23:38:26.500Z,50.04
2023-10-15T23:40:53.306Z,50.29
2023-10-15T23:43:20.166Z,49.93
2023-10-15T23:45:47.106Z,50.16
2023-10-15T23:48:14.092Z,49.90
2023-10-15T23:50:41.008Z,49.91
2023-10-15T23:53:07.958Z,50.15
2023-10-15T23:55:34.875Z,49.88
2023-10-15T23:58:01.892Z,50.19
